sensor_id;sensor_type;location;lat;lon;timestamp;pressure;altitude;pressure_sealevel;temperature;humidity
61394;BME280;48555;50.952;-0.120;2023-04-27T00:00:28;101321.44;;;8.98;71.59
61394;BME280;48555;50.952;-0.120;2023-04-27T00:02:54;101322.56;;;8.94;71.92
61394;BME280;48555;50.952;-0.120;2023-04-27T00:05:19;101321.78;;;8.92;72.55
61394;BME280;48555;50.952;-0.120;2023-04-27T00:07:45;101321.88;;;8.91;72.74
61394;BME280;48555;50.952;-0.120;2023-04-27T00:10:10;101330.03;;;8.84;72.64
61394;BME280;48555;50.952;-0.120;2023-04-27T00:12:36;101326.69;;;8.82;72.71
61394;BME280;48555;50.952;-0.120;2023-04-27T00:15:02;101333.63;;;8.82;72.87
61394;BME280;48555;50.952;-0.120;2023-04-27T00:17:27;101325.09;;;8.80;72.77
61394;BME280;48555;50.952;-0.120;2023-04-27T00:19:52;101320.88;;;8.77;72.53
61394;BME280;48555;50.952;-0.120;2023-04-27T00:22:18;101325.25;;;8.77;72.53
61394;BME280;48555;50.952;-0.120;2023-04-27T00:24:44;101311.97;;;8.66;72.72
61394;BME280;48555;50.952;-0.120;2023-04-27T00:27:09;101318.59;;;8.71;72.38
61394;BME280;48555;50.952;-0.120;2023-04-27T00:29:38;101322.13;;;8.70;72.27
61394;BME280;48555;50.952;-0.120;2023-04-27T00:32:07;101318.66;;;8.70;72.15
61394;BME280;48555;50.952;-0.120;2023-04-27T00:34:32;101313.63;;;8.67;72.29
61394;BME280;48555;50.952;-0.120;2023-04-27T00:36:57;101306.25;;;8.59;72.49
61394;BME280;48555;50.952;-0.120;2023-04-27T00:39:23;101301.09;;;8.57;72.66
61394;BME280;48555;50.952;-0.120;2023-04-27T00:41:48;101304.72;;;8.55;72.74
61394;BME280;48555;50.952;-0.120;2023-04-27T00:44:21;101304.88;;;8.52;72.92
61394;BME280;48555;50.952;-0.120;2023-04-27T00:46:47;101300.59;;;8.51;72.88
61394;BME280;48555;50.952;-0.120;2023-04-27T00:49:12;101292.34;;;8.43;73.03
61394;BME280;48555;50.952;-0.120;2023-04-27T00:51:37;101298.66;;;8.38;73.73
61394;BME280;48555;50.952;-0.120;2023-04-27T00:54:03;101294.31;;;8.37;74.14
61394;BME280;48555;50.952;-0.120;2023-04-27T00:56:30;101291.88;;;8.34;73.99
61394;BME280;48555;50.952;-0.120;2023-04-27T00:58:55;101299.78;;;8.33;74.61
61394;BME280;48555;50.952;-0.120;2023-04-27T01:01:21;101284.47;;;8.27;75.24
61394;BME280;48555;50.952;-0.120;2023-04-27T01:03:47;101273.47;;;8.22;75.77
61394;BME280;48555;50.952;-0.120;2023-04-27T01:06:13;101275.06;;;8.24;75.41
61394;BME280;48555;50.952;-0.120;2023-04-27T01:08:38;101271.75;;;8.20;75.82
61394;BME280;48555;50.952;-0.120;2023-04-27T01:11:03;101271.91;;;8.17;75.86
61394;BME280;48555;50.952;-0.120;2023-04-27T01:13:29;101264.09;;;8.17;75.89
61394;BME280;48555;50.952;-0.120;2023-04-27T01:15:54;101258.38;;;8.11;76.21
61394;BME280;48555;50.952;-0.120;2023-04-27T01:18:19;101247.38;;;8.06;76.42
61394;BME280;48555;50.952;-0.120;2023-04-27T01:20:45;101261.81;;;8.11;76.32
61394;BME280;48555;50.952;-0.120;2023-04-27T01:23:14;101253.28;;;8.09;76.77
61394;BME280;48555;50.952;-0.120;2023-04-27T01:25:39;101249.13;;;8.05;76.95
61394;BME280;48555;50.952;-0.120;2023-04-27T01:28:05;101252.00;;;8.01;77.27
61394;BME280;48555;50.952;-0.120;2023-04-27T01:30:30;101246.94;;;7.97;77.44
61394;BME280;48555;50.952;-0.120;2023-04-27T01:32:56;101241.97;;;7.93;77.30
61394;BME280;48555;50.952;-0.120;2023-04-27T01:35:21;101241.19;;;7.91;77.10
61394;BME280;48555;50.952;-0.120;2023-04-27T01:37:46;101236.16;;;7.88;77.30
61394;BME280;48555;50.952;-0.120;2023-04-27T01:40:12;101222.72;;;7.80;77.79
61394;BME280;48555;50.952;-0.120;2023-04-27T01:42:37;101238.19;;;7.83;77.73
61394;BME280;48555;50.952;-0.120;2023-04-27T01:45:03;101234.88;;;7.79;77.90
61394;BME280;48555;50.952;-0.120;2023-04-27T01:47:29;101235.03;;;7.76;78.33
61394;BME280;48555;50.952;-0.120;2023-04-27T01:49:54;101221.28;;;7.74;78.02
61394;BME280;48555;50.952;-0.120;2023-04-27T01:52:20;101230.91;;;7.72;78.19
61394;BME280;48555;50.952;-0.120;2023-04-27T01:54:45;101234.38;;;7.72;78.39
61394;BME280;48555;50.952;-0.120;2023-04-27T01:57:11;101227.47;;;7.71;78.06
61394;BME280;48555;50.952;-0.120;2023-04-27T01:59:36;101232.84;;;7.68;78.86
61394;BME280;48555;50.952;-0.120;2023-04-27T02:02:02;101240.72;;;7.67;78.76
61394;BME280;48555;50.952;-0.120;2023-04-27T02:04:27;101241.50;;;7.69;78.44
61394;BME280;48555;50.952;-0.120;2023-04-27T02:06:52;101241.56;;;7.67;78.71
61394;BME280;48555;50.952;-0.120;2023-04-27T02:09:18;101247.53;;;7.69;78.46
61394;BME280;48555;50.952;-0.120;2023-04-27T02:11:43;101260.56;;;7.69;78.33
61394;BME280;48555;50.952;-0.120;2023-04-27T02:14:09;101259.78;;;7.67;78.29
61394;BME280;48555;50.952;-0.120;2023-04-27T02:16:34;101266.69;;;7.68;78.18
61394;BME280;48555;50.952;-0.120;2023-04-27T02:19:00;101276.25;;;7.68;77.72
61394;BME280;48555;50.952;-0.120;2023-04-27T02:21:25;101269.59;;;7.62;77.85
61394;BME280;48555;50.952;-0.120;2023-04-27T02:23:52;101269.50;;;7.64;77.88
61394;BME280;48555;50.952;-0.120;2023-04-27T02:26:18;101274.72;;;7.64;77.43
61394;BME280;48555;50.952;-0.120;2023-04-27T02:28:45;101277.41;;;7.62;77.51
61394;BME280;48555;50.952;-0.120;2023-04-27T02:31:12;101277.56;;;7.59;77.69
61394;BME280;48555;50.952;-0.120;2023-04-27T02:33:38;101276.84;;;7.56;77.62
61394;BME280;48555;50.952;-0.120;2023-04-27T02:36:03;101276.13;;;7.54;77.29
61394;BME280;48555;50.952;-0.120;2023-04-27T02:38:29;101274.34;;;7.54;77.75
61394;BME280;48555;50.952;-0.120;2023-04-27T02:40:54;101273.41;;;7.55;77.51
61394;BME280;48555;50.952;-0.120;2023-04-27T02:43:20;101273.50;;;7.54;77.85
61394;BME280;48555;50.952;-0.120;2023-04-27T02:45:45;101264.94;;;7.51;77.81
61394;BME280;48555;50.952;-0.120;2023-04-27T02:48:11;101271.06;;;7.50;77.67
61394;BME280;48555;50.952;-0.120;2023-04-27T02:50:40;101270.22;;;7.50;77.63
61394;BME280;48555;50.952;-0.120;2023-04-27T02:53:06;101251.31;;;7.46;78.09
61394;BME280;48555;50.952;-0.120;2023-04-27T02:55:31;101249.09;;;7.39;78.54
61394;BME280;48555;50.952;-0.120;2023-04-27T02:57:57;101246.81;;;7.33;78.63
61394;BME280;48555;50.952;-0.120;2023-04-27T03:00:22;101247.97;;;7.27;79.02
61394;BME280;48555;50.952;-0.120;2023-04-27T03:02:48;101246.56;;;7.20;80.01
61394;BME280;48555;50.952;-0.120;2023-04-27T03:05:13;101241.66;;;7.14;80.42
61394;BME280;48555;50.952;-0.120;2023-04-27T03:07:38;101236.56;;;7.12;80.14
61394;BME280;48555;50.952;-0.120;2023-04-27T03:10:04;101239.06;;;7.14;80.48
61394;BME280;48555;50.952;-0.120;2023-04-27T03:12:29;101245.19;;;7.13;80.66
61394;BME280;48555;50.952;-0.120;2023-04-27T03:14:55;101243.50;;;7.12;80.93
61394;BME280;48555;50.952;-0.120;2023-04-27T03:17:20;101237.53;;;7.10;80.84
61394;BME280;48555;50.952;-0.120;2023-04-27T03:19:46;101241.75;;;7.12;80.85
61394;BME280;48555;50.952;-0.120;2023-04-27T03:22:13;101237.44;;;7.11;80.76
61394;BME280;48555;50.952;-0.120;2023-04-27T03:24:39;101242.66;;;7.11;80.88
61394;BME280;48555;50.952;-0.120;2023-04-27T03:27:04;101243.59;;;7.10;80.71
61394;BME280;48555;50.952;-0.120;2023-04-27T03:29:29;101234.94;;;7.10;80.77
61394;BME280;48555;50.952;-0.120;2023-04-27T03:31:55;101239.16;;;7.12;80.74
61394;BME280;48555;50.952;-0.120;2023-04-27T03:34:21;101233.97;;;7.12;81.07
61394;BME280;48555;50.952;-0.120;2023-04-27T03:36:47;101225.38;;;7.10;81.03
61394;BME280;48555;50.952;-0.120;2023-04-27T03:39:13;101221.09;;;7.09;81.21
61394;BME280;48555;50.952;-0.120;2023-04-27T03:41:38;101227.06;;;7.11;81.14
61394;BME280;48555;50.952;-0.120;2023-04-27T03:44:03;101229.66;;;7.11;81.28
61394;BME280;48555;50.952;-0.120;2023-04-27T03:46:29;101222.16;;;7.05;81.86
61394;BME280;48555;50.952;-0.120;2023-04-27T03:48:54;101223.00;;;7.05;81.68
61394;BME280;48555;50.952;-0.120;2023-04-27T03:51:19;101220.53;;;7.02;81.56
61394;BME280;48555;50.952;-0.120;2023-04-27T03:53:45;101221.53;;;7.00;82.11
61394;BME280;48555;50.952;-0.120;2023-04-27T03:56:10;101212.91;;;6.99;82.20
61394;BME280;48555;50.952;-0.120;2023-04-27T03:58:35;101213.88;;;6.97;82.05
61394;BME280;48555;50.952;-0.120;2023-04-27T04:01:01;101213.00;;;6.98;82.22
61394;BME280;48555;50.952;-0.120;2023-04-27T04:03:26;101201.13;;;6.92;82.32
61394;BME280;48555;50.952;-0.120;2023-04-27T04:05:51;101197.69;;;6.92;82.04
61394;BME280;48555;50.952;-0.120;2023-04-27T04:08:17;101198.84;;;6.86;82.65
61394;BME280;48555;50.952;-0.120;2023-04-27T04:10:42;101203.09;;;6.87;82.73
61394;BME280;48555;50.952;-0.120;2023-04-27T04:13:07;101198.84;;;6.86;82.97
61394;BME280;48555;50.952;-0.120;2023-04-27T04:15:33;101188.59;;;6.83;83.28
61394;BME280;48555;50.952;-0.120;2023-04-27T04:17:58;101190.25;;;6.84;83.02
61394;BME280;48555;50.952;-0.120;2023-04-27T04:20:23;101198.00;;;6.86;83.28
61394;BME280;48555;50.952;-0.120;2023-04-27T04:22:49;101192.69;;;6.87;82.55
61394;BME280;48555;50.952;-0.120;2023-04-27T04:25:14;101193.94;;;6.80;83.23
61394;BME280;48555;50.952;-0.120;2023-04-27T04:27:40;101204.09;;;6.85;83.22
61394;BME280;48555;50.952;-0.120;2023-04-27T04:30:06;101200.50;;;6.87;82.74
61394;BME280;48555;50.952;-0.120;2023-04-27T04:32:32;101196.00;;;6.91;82.83
61394;BME280;48555;50.952;-0.120;2023-04-27T04:34:58;101185.69;;;6.89;82.92
61394;BME280;48555;50.952;-0.120;2023-04-27T04:37:25;101184.22;;;6.83;83.37
61394;BME280;48555;50.952;-0.120;2023-04-27T04:39:51;101175.66;;;6.81;83.61
61394;BME280;48555;50.952;-0.120;2023-04-27T04:42:16;101177.34;;;6.82;83.78
61394;BME280;48555;50.952;-0.120;2023-04-27T04:44:42;101176.34;;;6.85;83.32
61394;BME280;48555;50.952;-0.120;2023-04-27T04:47:07;101174.50;;;6.87;83.13
61394;BME280;48555;50.952;-0.120;2023-04-27T04:49:34;101171.84;;;6.89;82.84
61394;BME280;48555;50.952;-0.120;2023-04-27T04:51:59;101170.00;;;6.91;83.22
61394;BME280;48555;50.952;-0.120;2023-04-27T04:54:25;101176.75;;;6.95;nan
61394;BME280;48555;50.952;-0.120;2023-04-27T04:56:50;101184.38;;;6.98;82.98
61394;BME280;48555;50.952;-0.120;2023-04-27T04:59:16;101188.19;;;7.08;82.44
61394;BME280;48555;50.952;-0.120;2023-04-27T05:01:41;101181.94;;;7.12;82.30
61394;BME280;48555;50.952;-0.120;2023-04-27T05:04:07;101183.31;;;7.19;82.18
61394;BME280;48555;50.952;-0.120;2023-04-27T05:06:32;101171.06;;;7.21;82.43
61394;BME280;48555;50.952;-0.120;2023-04-27T05:08:57;101173.69;;;7.21;82.33
61394;BME280;48555;50.952;-0.120;2023-04-27T05:11:23;101171.59;;;7.28;82.04
61394;BME280;48555;50.952;-0.120;2023-04-27T05:13:48;101177.56;;;7.30;81.99
61394;BME280;48555;50.952;-0.120;2023-04-27T05:16:14;101178.31;;;7.32;81.73
61394;BME280;48555;50.952;-0.120;2023-04-27T05:18:39;101166.00;;;7.36;81.73
61394;BME280;48555;50.952;-0.120;2023-04-27T05:21:12;101166.75;;;7.38;81.68
61394;BME280;48555;50.952;-0.120;2023-04-27T05:23:38;101173.66;;;7.39;81.81
61394;BME280;48555;50.952;-0.120;2023-04-27T05:26:10;101175.09;;;7.44;81.86
61394;BME280;48555;50.952;-0.120;2023-04-27T05:28:36;101166.97;;;7.50;81.83
61394;BME280;48555;50.952;-0.120;2023-04-27T05:31:01;101170.00;;;7.59;82.05
61394;BME280;48555;50.952;-0.120;2023-04-27T05:33:27;101172.97;;;7.68;82.01
61394;BME280;48555;50.952;-0.120;2023-04-27T05:35:52;101193.22;;;7.79;82.07
61394;BME280;48555;50.952;-0.120;2023-04-27T05:38:17;101192.75;;;7.88;81.88
61394;BME280;48555;50.952;-0.120;2023-04-27T05:40:43;101198.16;;;8.01;82.10
61394;BME280;48555;50.952;-0.120;2023-04-27T05:43:08;101193.38;;;8.09;82.07
61394;BME280;48555;50.952;-0.120;2023-04-27T05:45:38;101190.94;;;8.22;81.70
61394;BME280;48555;50.952;-0.120;2023-04-27T05:48:03;101183.59;;;8.29;81.64
61394;BME280;48555;50.952;-0.120;2023-04-27T05:50:28;101180.84;;;8.32;81.28
61394;BME280;48555;50.952;-0.120;2023-04-27T05:52:54;101175.28;;;8.38;81.45
61394;BME280;48555;50.952;-0.120;2023-04-27T05:55:19;101179.34;;;8.44;81.22
61394;BME280;48555;50.952;-0.120;2023-04-27T05:57:45;101174.72;;;8.49;80.83
61394;BME280;48555;50.952;-0.120;2023-04-27T06:00:10;101180.34;;;8.57;80.90
61394;BME280;48555;50.952;-0.120;2023-04-27T06:02:36;101170.69;;;8.59;80.70
61394;BME280;48555;50.952;-0.120;2023-04-27T06:05:02;101171.00;;;8.69;80.51
61394;BME280;48555;50.952;-0.120;2023-04-27T06:07:27;101176.03;;;8.72;80.03
61394;BME280;48555;50.952;-0.120;2023-04-27T06:09:53;101167.38;;;8.71;79.98
61394;BME280;48555;50.952;-0.120;2023-04-27T06:12:18;101187.25;;;8.88;79.96
61394;BME280;48555;50.952;-0.120;2023-04-27T06:14:44;101200.34;;;9.02;79.93
61394;BME280;48555;50.952;-0.120;2023-04-27T06:17:09;101187.69;;;9.10;79.63
61394;BME280;48555;50.952;-0.120;2023-04-27T06:19:35;101198.25;;;9.23;79.50
61394;BME280;48555;50.952;-0.120;2023-04-27T06:22:00;101191.00;;;9.28;79.11
61394;BME280;48555;50.952;-0.120;2023-04-27T06:24:27;101178.53;;;9.33;79.05
61394;BME280;48555;50.952;-0.120;2023-04-27T06:26:52;101163.69;;;9.34;79.32
61394;BME280;48555;50.952;-0.120;2023-04-27T06:29:18;101165.56;;;9.32;78.91
61394;BME280;48555;50.952;-0.120;2023-04-27T06:31:43;101163.50;;;9.37;79.30
61394;BME280;48555;50.952;-0.120;2023-04-27T06:34:09;101164.47;;;9.50;79.12
61394;BME280;48555;50.952;-0.120;2023-04-27T06:36:34;101163.25;;;9.56;79.27
61394;BME280;48555;50.952;-0.120;2023-04-27T06:39:00;101154.69;;;9.68;79.11
61394;BME280;48555;50.952;-0.120;2023-04-27T06:41:26;101168.44;;;9.85;78.68
61394;BME280;48555;50.952;-0.120;2023-04-27T06:43:52;101159.78;;;9.98;78.43
61394;BME280;48555;50.952;-0.120;2023-04-27T06:46:18;101178.03;;;10.27;77.72
61394;BME280;48555;50.952;-0.120;2023-04-27T06:48:44;101186.31;;;10.61;77.25
61394;BME280;48555;50.952;-0.120;2023-04-27T06:51:10;101178.78;;;10.83;76.62
61394;BME280;48555;50.952;-0.120;2023-04-27T06:53:36;101198.69;;;11.11;75.75
61394;BME280;48555;50.952;-0.120;2023-04-27T06:56:02;101193.16;;;11.16;75.00
61394;BME280;48555;50.952;-0.120;2023-04-27T06:58:27;101191.09;;;11.21;74.51
61394;BME280;48555;50.952;-0.120;2023-04-27T07:00:53;101184.69;;;11.25;74.45
61394;BME280;48555;50.952;-0.120;2023-04-27T07:03:19;101177.16;;;11.21;73.81
61394;BME280;48555;50.952;-0.120;2023-04-27T07:05:46;101180.09;;;11.16;73.88
61394;BME280;48555;50.952;-0.120;2023-04-27T07:08:11;101178.22;;;11.18;73.86
61394;BME280;48555;50.952;-0.120;2023-04-27T07:10:37;101187.22;;;11.27;73.24
61394;BME280;48555;50.952;-0.120;2023-04-27T07:13:02;101190.88;;;11.50;73.01
61394;BME280;48555;50.952;-0.120;2023-04-27T07:15:29;101180.41;;;11.63;72.35
61394;BME280;48555;50.952;-0.120;2023-04-27T07:17:55;101187.13;;;11.54;72.07
61394;BME280;48555;50.952;-0.120;2023-04-27T07:20:20;101177.38;;;11.56;71.44
61394;BME280;48555;50.952;-0.120;2023-04-27T07:22:46;101175.38;;;11.59;71.83
61394;BME280;48555;50.952;-0.120;2023-04-27T07:25:11;101179.16;;;11.68;71.25
61394;BME280;48555;50.952;-0.120;2023-04-27T07:27:37;101173.63;;;11.86;71.21
61394;BME280;48555;50.952;-0.120;2023-04-27T07:30:03;101179.88;;;11.96;70.49
61394;BME280;48555;50.952;-0.120;2023-04-27T07:32:31;101178.19;;;11.95;70.14
61394;BME280;48555;50.952;-0.120;2023-04-27T07:34:57;101182.78;;;12.04;69.54
61394;BME280;48555;50.952;-0.120;2023-04-27T07:37:23;101171.88;;;12.10;69.09
61394;BME280;48555;50.952;-0.120;2023-04-27T07:39:49;101181.09;;;12.16;68.88
61394;BME280;48555;50.952;-0.120;2023-04-27T07:42:16;101176.00;;;12.25;69.12
61394;BME280;48555;50.952;-0.120;2023-04-27T07:44:42;101179.31;;;12.40;68.56
61394;BME280;48555;50.952;-0.120;2023-04-27T07:47:08;101180.66;;;12.46;68.22
61394;BME280;48555;50.952;-0.120;2023-04-27T07:49:33;101179.16;;;12.55;67.83
61394;BME280;48555;50.952;-0.120;2023-04-27T07:51:59;101173.81;;;12.56;67.05
61394;BME280;48555;50.952;-0.120;2023-04-27T07:54:25;101169.03;;;12.61;66.83
61394;BME280;48555;50.952;-0.120;2023-04-27T07:56:50;101148.34;;;12.45;65.84
61394;BME280;48555;50.952;-0.120;2023-04-27T07:59:16;101170.94;;;12.59;66.07
61394;BME280;48555;50.952;-0.120;2023-04-27T08:01:41;101161.81;;;12.76;66.30
61394;BME280;48555;50.952;-0.120;2023-04-27T08:04:07;101167.25;;;12.86;64.69
61394;BME280;48555;50.952;-0.120;2023-04-27T08:06:32;101154.81;;;12.88;63.31
61394;BME280;48555;50.952;-0.120;2023-04-27T08:08:58;101161.66;;;13.02;62.74
61394;BME280;48555;50.952;-0.120;2023-04-27T08:11:25;101170.34;;;13.26;62.36
61394;BME280;48555;50.952;-0.120;2023-04-27T08:13:50;101162.63;;;13.47;61.38
61394;BME280;48555;50.952;-0.120;2023-04-27T08:16:16;101158.31;;;13.69;60.14
61394;BME280;48555;50.952;-0.120;2023-04-27T08:18:42;101162.13;;;13.76;59.37
61394;BME280;48555;50.952;-0.120;2023-04-27T08:21:08;101158.91;;;13.72;59.55
61394;BME280;48555;50.952;-0.120;2023-04-27T08:23:33;101149.72;;;13.78;59.59
61394;BME280;48555;50.952;-0.120;2023-04-27T08:26:01;101154.97;;;13.78;59.59
61394;BME280;48555;50.952;-0.120;2023-04-27T08:28:27;101152.91;;;13.93;59.76
61394;BME280;48555;50.952;-0.120;2023-04-27T08:30:52;101170.00;;;13.98;58.97
61394;BME280;48555;50.952;-0.120;2023-04-27T08:33:17;101173.56;;;14.08;58.25
61394;BME280;48555;50.952;-0.120;2023-04-27T08:35:43;101175.84;;;14.02;57.32
61394;BME280;48555;50.952;-0.120;2023-04-27T08:38:08;101163.34;;;13.94;57.66
61394;BME280;48555;50.952;-0.120;2023-04-27T08:40:33;101167.47;;;13.97;56.96
61394;BME280;48555;50.952;-0.120;2023-04-27T08:42:59;101156.75;;;13.89;56.45
61394;BME280;48555;50.952;-0.120;2023-04-27T08:45:26;101158.66;;;13.75;57.45
61394;BME280;48555;50.952;-0.120;2023-04-27T08:47:52;101163.19;;;13.84;57.26
61394;BME280;48555;50.952;-0.120;2023-04-27T08:50:18;101154.97;;;13.78;56.87
61394;BME280;48555;50.952;-0.120;2023-04-27T08:52:45;101155.22;;;13.63;57.41
61394;BME280;48555;50.952;-0.120;2023-04-27T08:55:11;101157.34;;;13.58;57.79
61394;BME280;48555;50.952;-0.120;2023-04-27T08:57:37;101141.72;;;13.68;57.79
61394;BME280;48555;50.952;-0.120;2023-04-27T09:00:03;101143.88;;;13.74;57.52
61394;BME280;48555;50.952;-0.120;2023-04-27T09:02:36;101145.03;;;13.93;56.25
61394;BME280;48555;50.952;-0.120;2023-04-27T09:05:02;101141.91;;;13.99;56.76
61394;BME280;48555;50.952;-0.120;2023-04-27T09:07:28;101141.91;;;14.10;57.10
61394;BME280;48555;50.952;-0.120;2023-04-27T09:10:04;101130.06;;;14.16;56.96
61394;BME280;48555;50.952;-0.120;2023-04-27T09:12:29;101130.84;;;14.27;56.33
61394;BME280;48555;50.952;-0.120;2023-04-27T09:15:02;101107.31;;;14.15;56.14
61394;BME280;48555;50.952;-0.120;2023-04-27T09:17:29;101123.53;;;14.31;55.83
61394;BME280;48555;50.952;-0.120;2023-04-27T09:20:05;101115.47;;;14.44;56.17
61394;BME280;48555;50.952;-0.120;2023-04-27T09:22:44;101123.38;;;14.44;55.11
61394;BME280;48555;50.952;-0.120;2023-04-27T09:25:31;101117.28;;;14.43;55.34
61394;BME280;48555;50.952;-0.120;2023-04-27T09:27:59;101116.69;;;14.40;55.25
61394;BME280;48555;50.952;-0.120;2023-04-27T09:30:25;101108.47;;;14.33;55.32
61394;BME280;48555;50.952;-0.120;2023-04-27T09:32:52;101103.44;;;14.41;54.47
61394;BME280;48555;50.952;-0.120;2023-04-27T09:35:23;101103.59;;;14.28;55.08
61394;BME280;48555;50.952;-0.120;2023-04-27T09:37:49;101106.50;;;14.14;54.72
61394;BME280;48555;50.952;-0.120;2023-04-27T09:40:19;101101.47;;;14.11;54.25
61394;BME280;48555;50.952;-0.120;2023-04-27T09:42:50;101110.94;;;14.02;54.34
61394;BME280;48555;50.952;-0.120;2023-04-27T09:45:16;101113.00;;;13.99;54.84
61394;BME280;48555;50.952;-0.120;2023-04-27T09:47:43;101121.22;;;14.05;54.67
61394;BME280;48555;50.952;-0.120;2023-04-27T09:50:11;101115.81;;;14.18;54.67
61394;BME280;48555;50.952;-0.120;2023-04-27T09:52:36;101109.34;;;14.22;54.59
61394;BME280;48555;50.952;-0.120;2023-04-27T09:55:03;101104.69;;;14.15;53.85
61394;BME280;48555;50.952;-0.120;2023-04-27T09:57:57;101100.91;;;14.07;54.31
61394;BME280;48555;50.952;-0.120;2023-04-27T10:00:41;101103.31;;;13.99;54.52
61394;BME280;48555;50.952;-0.120;2023-04-27T10:03:22;101106.44;;;13.93;54.82
61394;BME280;48555;50.952;-0.120;2023-04-27T10:08:28;101110.84;;;14.04;54.83
61394;BME280;48555;50.952;-0.120;2023-04-27T10:10:53;101080.34;;;14.13;54.10
61394;BME280;48555;50.952;-0.120;2023-04-27T10:13:23;101091.53;;;14.15;54.68
61394;BME280;48555;50.952;-0.120;2023-04-27T10:15:50;101088.78;;;14.27;53.83
61394;BME280;48555;50.952;-0.120;2023-04-27T10:18:28;101092.59;;;14.23;53.77
61394;BME280;48555;50.952;-0.120;2023-04-27T10:20:54;101081.34;;;14.00;54.10
61394;BME280;48555;50.952;-0.120;2023-04-27T10:23:24;101076.50;;;14.05;53.85
61394;BME280;48555;50.952;-0.120;2023-04-27T10:25:51;101075.84;;;13.92;54.21
61394;BME280;48555;50.952;-0.120;2023-04-27T10:28:17;101055.06;;;13.89;54.04
61394;BME280;48555;50.952;-0.120;2023-04-27T10:30:44;101064.09;;;14.07;53.68
61394;BME280;48555;50.952;-0.120;2023-04-27T10:33:15;101067.44;;;14.09;53.53
61394;BME280;48555;50.952;-0.120;2023-04-27T10:35:43;101069.56;;;14.16;53.30
61394;BME280;48555;50.952;-0.120;2023-04-27T10:40:42;101057.72;;;14.42;53.24
61394;BME280;48555;50.952;-0.120;2023-04-27T10:43:12;101061.41;;;14.51;52.61
61394;BME280;48555;50.952;-0.120;2023-04-27T10:45:39;101068.25;;;14.42;52.22
61394;BME280;48555;50.952;-0.120;2023-04-27T10:48:05;101062.69;;;14.36;51.92
61394;BME280;48555;50.952;-0.120;2023-04-27T10:50:30;101052.19;;;14.24;52.59
61394;BME280;48555;50.952;-0.120;2023-04-27T10:53:03;101054.72;;;14.15;52.85
61394;BME280;48555;50.952;-0.120;2023-04-27T10:55:29;101054.69;;;14.26;52.62
61394;BME280;48555;50.952;-0.120;2023-04-27T10:57:56;101048.84;;;14.22;53.15
61394;BME280;48555;50.952;-0.120;2023-04-27T11:00:32;101041.78;;;14.23;53.04
61394;BME280;48555;50.952;-0.120;2023-04-27T11:03:16;101044.16;;;14.26;53.04
61394;BME280;48555;50.952;-0.120;2023-04-27T11:05:43;101038.28;;;14.34;53.26
61394;BME280;48555;50.952;-0.120;2023-04-27T11:08:17;101034.00;;;14.32;52.67
61394;BME280;48555;50.952;-0.120;2023-04-27T11:10:47;101043.41;;;14.35;52.05
61394;BME280;48555;50.952;-0.120;2023-04-27T11:13:16;101028.38;;;14.26;52.30
61394;BME280;48555;50.952;-0.120;2023-04-27T11:15:55;101018.50;;;14.18;52.89
61394;BME280;48555;50.952;-0.120;2023-04-27T11:18:22;101027.13;;;14.41;52.04
61394;BME280;48555;50.952;-0.120;2023-04-27T11:20:50;101023.53;;;14.42;52.64
61394;BME280;48555;50.952;-0.120;2023-04-27T11:23:29;101017.97;;;14.57;51.90
61394;BME280;48555;50.952;-0.120;2023-04-27T11:26:08;101017.19;;;14.66;51.98
61394;BME280;48555;50.952;-0.120;2023-04-27T11:28:34;101015.44;;;14.76;52.10
61394;BME280;48555;50.952;-0.120;2023-04-27T11:30:59;101009.50;;;14.74;51.96
61394;BME280;48555;50.952;-0.120;2023-04-27T11:33:26;101028.41;;;14.89;51.98
61394;BME280;48555;50.952;-0.120;2023-04-27T11:35:52;101022.22;;;14.99;52.31
61394;BME280;48555;50.952;-0.120;2023-04-27T11:38:18;101031.72;;;15.12;51.46
61394;BME280;48555;50.952;-0.120;2023-04-27T11:40:58;101033.94;;;15.16;50.93
61394;BME280;48555;50.952;-0.120;2023-04-27T11:43:25;101025.59;;;15.11;51.81
61394;BME280;48555;50.952;-0.120;2023-04-27T11:45:50;101016.16;;;15.09;50.88
61394;BME280;48555;50.952;-0.120;2023-04-27T11:48:16;101021.00;;;15.04;50.99
61394;BME280;48555;50.952;-0.120;2023-04-27T11:50:48;101027.88;;;14.95;51.48
61394;BME280;48555;50.952;-0.120;2023-04-27T11:53:14;101020.34;;;14.81;51.59
61394;BME280;48555;50.952;-0.120;2023-04-27T11:55:40;101012.56;;;14.79;51.36
61394;BME280;48555;50.952;-0.120;2023-04-27T11:58:12;101009.88;;;14.69;51.37
61394;BME280;48555;50.952;-0.120;2023-04-27T12:00:37;101010.09;;;14.57;51.51
61394;BME280;48555;50.952;-0.120;2023-04-27T12:03:02;101015.38;;;14.45;52.45
61394;BME280;48555;50.952;-0.120;2023-04-27T12:05:28;101006.72;;;14.34;52.84
61394;BME280;48555;50.952;-0.120;2023-04-27T12:07:53;101006.25;;;14.28;53.33
61394;BME280;48555;50.952;-0.120;2023-04-27T12:10:19;100995.63;;;14.30;53.43
61394;BME280;48555;50.952;-0.120;2023-04-27T12:12:44;100993.69;;;14.32;53.11
61394;BME280;48555;50.952;-0.120;2023-04-27T12:15:10;100977.25;;;14.40;52.70
61394;BME280;48555;50.952;-0.120;2023-04-27T12:17:36;100977.81;;;14.43;53.44
61394;BME280;48555;50.952;-0.120;2023-04-27T12:20:01;100976.81;;;14.56;52.89
61394;BME280;48555;50.952;-0.120;2023-04-27T12:22:26;100975.34;;;14.63;53.12
61394;BME280;48555;50.952;-0.120;2023-04-27T12:24:52;100975.81;;;14.68;52.53
61394;BME280;48555;50.952;-0.120;2023-04-27T12:27:18;100973.84;;;14.70;52.67
61394;BME280;48555;50.952;-0.120;2023-04-27T12:29:43;100938.09;;;14.67;51.78
61394;BME280;48555;50.952;-0.120;2023-04-27T12:32:08;100976.31;;;14.92;51.56
61394;BME280;48555;50.952;-0.120;2023-04-27T12:34:34;100966.78;;;15.01;51.47
61394;BME280;48555;50.952;-0.120;2023-04-27T12:36:59;100960.19;;;15.16;50.97
61394;BME280;48555;50.952;-0.120;2023-04-27T12:39:25;100935.38;;;15.19;51.14
61394;BME280;48555;50.952;-0.120;2023-04-27T12:41:51;100934.16;;;15.33;50.83
61394;BME280;48555;50.952;-0.120;2023-04-27T12:44:18;100940.97;;;15.45;49.89
61394;BME280;48555;50.952;-0.120;2023-04-27T12:46:45;100926.97;;;15.44;49.90